Champion, NE (69023)

11:19 AM MDT on March 31, 2015 (GMT -0600)
Wray Municipal Airport | | Change Station
CLOSE
Current Station
Airport
Location: Wray Municipal Airport,
Elevation: 3668 ft
Nearby Weather Stations

Elev 3668 ft 40.10 °N, 102.24 °W | Updated 4 minutes ago

Clear
Clear
75 °F
Feels Like 75 °F
N
10
Wind Variable Wind from SSW

Today
High -- | Low -- °F
--% Chance of Precip.
Yesterday
High -- | Low -- °F
Precip. -- in
6:32 AM 7:10 PM
Waxing Gibbous, 88% visible
Pressure 30.01 in
Visibility 10.0 miles
Clouds Clear
Dew Point 22 °F
Humidity 14%
Rainfall 0.00 in
Snow Depth Not available.
UV 7 out of 12
Pollen 8.30 out of 12
Air Quality Not available.
Flu Activity Not available.
METAR K2V5 311715Z AUTO 21009KT 10SM CLR 24/M06 A3001 RMK AO2 T02371056

More Conditions Fewer Conditions

Pressure 30.01 in
Visibility 10.0 miles
Clouds Clear
Dew Point 22 °F
Humidity 14%
Rainfall 0.00 in
Snow Depth Not available.
UV 7 out of 12
Pollen 8.30 out of 12
Air Quality Not available.
Flu Activity Not available.
METAR K2V5 311715Z AUTO 21009KT 10SM CLR 24/M06 A3001 RMK AO2 T02371056

More Conditions Fewer Conditions

10-Day Weather Forecast

Almanac

Astronomy

Mar. 31, 2015 Rise Set
Actual Time
Civil Twilight
Nautical Twilight
Astronomical Twilight
Moon
Length of Visible Light
Length of Day
Tomorrow will be .
, % of the Moon is Illuminated

Today's Extremes

State Highs State Lows

Community

WunderPhotos

Upload Photos

1,809,787 photos uploaded!

WunderBlogs® & News

Nearby

Air Quality

  Air Quality AQ Index Pollutant
Not available.

Snow Depth

Station Depth Elevation

Earthquake Activity

City Distance Mag. Time & Date
Minimum magnitude displayed is 2.5.

Coastal Water Temperatures

Place Temperature

Stations

Nearby Weather Stations

Station Location Temp. Windchill Dew Point Humidity Wind Precip. Elev Updated Type